sensor_id;sensor_type;location;lat;lon;timestamp;pressure;altitude;pressure_sealevel;temperature;humidity
69223;BME280;56514;51.816;-0.026;2023-02-17T00:01:26;101354.06;;;12.69;74.42
69223;BME280;56514;51.816;-0.026;2023-02-17T00:04:36;101348.75;;;12.69;75.09
69223;BME280;56514;51.816;-0.026;2023-02-17T00:07:40;101337.22;;;12.70;75.01
69223;BME280;56514;51.816;-0.026;2023-02-17T00:10:54;101345.28;;;12.81;74.78
69223;BME280;56514;51.816;-0.026;2023-02-17T00:14:00;101342.66;;;12.81;74.96
69223;BME280;56514;51.816;-0.026;2023-02-17T00:17:05;101338.41;;;12.91;74.64
69223;BME280;56514;51.816;-0.026;2023-02-17T00:20:15;101346.97;;;12.82;75.19
69223;BME280;56514;51.816;-0.026;2023-02-17T00:23:25;101345.09;;;12.84;75.41
69223;BME280;56514;51.816;-0.026;2023-02-17T00:26:34;101347.19;;;12.79;75.58
69223;BME280;56514;51.816;-0.026;2023-02-17T00:29:44;101349.97;;;12.90;75.68
69223;BME280;56514;51.816;-0.026;2023-02-17T00:32:54;101347.22;;;12.91;75.90
69223;BME280;56514;51.816;-0.026;2023-02-17T00:35:39;101333.06;;;13.05;75.20
69223;BME280;56514;51.816;-0.026;2023-02-17T00:38:24;101333.22;;;12.89;76.16
69223;BME280;56514;51.816;-0.026;2023-02-17T00:41:09;101333.56;;;12.97;76.11
69223;BME280;56514;51.816;-0.026;2023-02-17T00:43:54;101343.28;;;12.97;75.88
69223;BME280;56514;51.816;-0.026;2023-02-17T00:46:39;101341.66;;;13.08;75.67
69223;BME280;56514;51.816;-0.026;2023-02-17T00:49:25;101342.59;;;13.20;75.30
69223;BME280;56514;51.816;-0.026;2023-02-17T00:52:35;101346.84;;;13.10;75.73
69223;BME280;56514;51.816;-0.026;2023-02-17T00:55:20;101345.47;;;13.17;75.60
69223;BME280;56514;51.816;-0.026;2023-02-17T00:58:04;101344.00;;;13.13;75.87
69223;BME280;56514;51.816;-0.026;2023-02-17T01:00:49;101341.13;;;13.16;75.50
69223;BME280;56514;51.816;-0.026;2023-02-17T01:03:34;101339.97;;;13.20;75.52
69223;BME280;56514;51.816;-0.026;2023-02-17T01:06:24;101335.41;;;13.22;75.51
69223;BME280;56514;51.816;-0.026;2023-02-17T01:09:12;101334.66;;;13.20;75.40
69223;BME280;56514;51.816;-0.026;2023-02-17T01:11:59;101328.81;;;13.27;75.43
69223;BME280;56514;51.816;-0.026;2023-02-17T01:14:44;101328.72;;;13.29;75.68
69223;BME280;56514;51.816;-0.026;2023-02-17T01:17:29;101328.09;;;13.25;75.71
69223;BME280;56514;51.816;-0.026;2023-02-17T01:20:15;101330.94;;;13.35;75.34
69223;BME280;56514;51.816;-0.026;2023-02-17T01:23:00;101329.03;;;13.37;75.57
69223;BME280;56514;51.816;-0.026;2023-02-17T01:25:46;101318.53;;;13.35;75.23
69223;BME280;56514;51.816;-0.026;2023-02-17T01:28:31;101315.69;;;13.38;75.47
69223;BME280;56514;51.816;-0.026;2023-02-17T01:31:16;101325.84;;;13.44;75.24
69223;BME280;56514;51.816;-0.026;2023-02-17T01:34:03;101319.41;;;13.48;75.33
69223;BME280;56514;51.816;-0.026;2023-02-17T01:36:48;101316.44;;;13.53;75.01
69223;BME280;56514;51.816;-0.026;2023-02-17T01:39:33;101312.81;;;13.54;75.16
69223;BME280;56514;51.816;-0.026;2023-02-17T01:42:19;101311.34;;;13.50;75.49
69223;BME280;56514;51.816;-0.026;2023-02-17T01:48:12;101298.22;;;13.72;74.60
69223;BME280;56514;51.816;-0.026;2023-02-17T01:51:02;101301.19;;;13.80;74.57
69223;BME280;56514;51.816;-0.026;2023-02-17T01:54:00;101296.78;;;13.68;75.01
69223;BME280;56514;51.816;-0.026;2023-02-17T01:56:47;101291.84;;;13.74;74.85
69223;BME280;56514;51.816;-0.026;2023-02-17T01:59:33;101298.31;;;13.83;74.74
69223;BME280;56514;51.816;-0.026;2023-02-17T02:02:18;101291.38;;;13.93;74.06
69223;BME280;56514;51.816;-0.026;2023-02-17T02:05:04;101283.97;;;13.85;74.87
69223;BME280;56514;51.816;-0.026;2023-02-17T02:07:50;101284.38;;;13.92;74.70
69223;BME280;56514;51.816;-0.026;2023-02-17T02:10:36;101286.88;;;14.06;74.17
69223;BME280;56514;51.816;-0.026;2023-02-17T02:13:20;101281.47;;;14.07;74.07
69223;BME280;56514;51.816;-0.026;2023-02-17T02:16:17;101291.44;;;14.04;74.00
69223;BME280;56514;51.816;-0.026;2023-02-17T02:19:27;101277.19;;;13.94;74.48
69223;BME280;56514;51.816;-0.026;2023-02-17T02:28:56;101276.47;;;13.79;74.80
69223;BME280;56514;51.816;-0.026;2023-02-17T02:34:54;101285.28;;;13.80;74.20
69223;BME280;56514;51.816;-0.026;2023-02-17T02:41:01;101289.75;;;13.67;74.40
69223;BME280;56514;51.816;-0.026;2023-02-17T02:43:50;101301.34;;;13.53;75.03
69223;BME280;56514;51.816;-0.026;2023-02-17T02:46:35;101306.25;;;13.47;75.44
69223;BME280;56514;51.816;-0.026;2023-02-17T02:49:20;101289.75;;;13.67;74.68
69223;BME280;56514;51.816;-0.026;2023-02-17T02:52:31;101297.22;;;13.62;74.76
69223;BME280;56514;51.816;-0.026;2023-02-17T03:07:34;101288.31;;;13.50;74.71
69223;BME280;56514;51.816;-0.026;2023-02-17T03:10:22;101288.41;;;13.49;74.61
69223;BME280;56514;51.816;-0.026;2023-02-17T03:13:07;101285.97;;;13.58;74.44
69223;BME280;56514;51.816;-0.026;2023-02-17T03:15:52;101291.50;;;13.55;74.67
69223;BME280;56514;51.816;-0.026;2023-02-17T03:18:36;101291.81;;;13.63;74.21
69223;BME280;56514;51.816;-0.026;2023-02-17T03:21:22;101284.56;;;13.65;73.73
69223;BME280;56514;51.816;-0.026;2023-02-17T03:24:09;101281.53;;;13.59;74.27
69223;BME280;56514;51.816;-0.026;2023-02-17T03:26:54;101285.66;;;13.50;74.40
69223;BME280;56514;51.816;-0.026;2023-02-17T03:29:39;101269.44;;;13.55;74.13
69223;BME280;56514;51.816;-0.026;2023-02-17T03:32:24;101272.06;;;13.55;74.02
69223;BME280;56514;51.816;-0.026;2023-02-17T03:35:09;101269.16;;;13.47;74.34
69223;BME280;56514;51.816;-0.026;2023-02-17T03:37:54;101271.47;;;13.51;74.26
69223;BME280;56514;51.816;-0.026;2023-02-17T03:40:39;101272.72;;;13.46;74.46
69223;BME280;56514;51.816;-0.026;2023-02-17T03:43:23;101266.56;;;13.58;73.91
69223;BME280;56514;51.816;-0.026;2023-02-17T03:46:13;101265.94;;;13.54;73.83
69223;BME280;56514;51.816;-0.026;2023-02-17T03:48:58;101266.91;;;13.41;74.18
69223;BME280;56514;51.816;-0.026;2023-02-17T03:51:43;101267.63;;;13.55;73.53
69223;BME280;56514;51.816;-0.026;2023-02-17T03:54:28;101275.47;;;13.57;73.15
69223;BME280;56514;51.816;-0.026;2023-02-17T03:57:14;101264.50;;;13.74;72.52
69223;BME280;56514;51.816;-0.026;2023-02-17T03:59:59;101255.22;;;13.56;72.94
69223;BME280;56514;51.816;-0.026;2023-02-17T04:02:44;101255.50;;;13.64;72.71
69223;BME280;56514;51.816;-0.026;2023-02-17T04:05:29;101272.16;;;13.66;72.53
69223;BME280;56514;51.816;-0.026;2023-02-17T04:08:15;101267.09;;;13.63;72.40
69223;BME280;56514;51.816;-0.026;2023-02-17T04:11:01;101267.75;;;13.54;72.94
69223;BME280;56514;51.816;-0.026;2023-02-17T04:13:46;101262.75;;;13.62;72.38
69223;BME280;56514;51.816;-0.026;2023-02-17T04:16:31;101266.34;;;13.61;72.17
69223;BME280;56514;51.816;-0.026;2023-02-17T04:19:16;101276.94;;;13.61;71.98
69223;BME280;56514;51.816;-0.026;2023-02-17T04:22:00;101284.75;;;13.75;71.31
69223;BME280;56514;51.816;-0.026;2023-02-17T04:24:46;101282.31;;;13.72;71.60
69223;BME280;56514;51.816;-0.026;2023-02-17T04:27:30;101281.69;;;13.68;71.46
69223;BME280;56514;51.816;-0.026;2023-02-17T04:30:15;101275.13;;;13.74;70.29
69223;BME280;56514;51.816;-0.026;2023-02-17T04:33:00;101283.34;;;13.82;70.20
69223;BME280;56514;51.816;-0.026;2023-02-17T04:35:46;101286.16;;;13.68;70.14
69223;BME280;56514;51.816;-0.026;2023-02-17T04:38:31;101285.97;;;13.58;70.62
69223;BME280;56514;51.816;-0.026;2023-02-17T04:41:16;101295.72;;;13.58;71.21
69223;BME280;56514;51.816;-0.026;2023-02-17T04:44:01;101295.59;;;13.59;70.95
69223;BME280;56514;51.816;-0.026;2023-02-17T04:46:46;101287.00;;;13.68;69.97
69223;BME280;56514;51.816;-0.026;2023-02-17T04:49:30;101299.22;;;13.58;69.84
69223;BME280;56514;51.816;-0.026;2023-02-17T04:52:15;101286.84;;;13.46;69.96
69223;BME280;56514;51.816;-0.026;2023-02-17T04:55:00;101282.41;;;13.47;70.08
69223;BME280;56514;51.816;-0.026;2023-02-17T04:57:45;101288.09;;;13.41;70.34
69223;BME280;56514;51.816;-0.026;2023-02-17T05:00:30;101284.19;;;13.46;70.40
69223;BME280;56514;51.816;-0.026;2023-02-17T05:03:16;101291.41;;;13.44;69.78
69223;BME280;56514;51.816;-0.026;2023-02-17T05:06:01;101277.00;;;13.36;69.38
69223;BME280;56514;51.816;-0.026;2023-02-17T05:08:46;101280.69;;;13.46;68.15
69223;BME280;56514;51.816;-0.026;2023-02-17T05:11:32;101275.50;;;13.32;68.70
69223;BME280;56514;51.816;-0.026;2023-02-17T05:14:16;101269.28;;;13.33;68.56
69223;BME280;56514;51.816;-0.026;2023-02-17T05:17:01;101272.03;;;13.19;68.98
69223;BME280;56514;51.816;-0.026;2023-02-17T05:19:46;101299.78;;;13.26;68.28
69223;BME280;56514;51.816;-0.026;2023-02-17T05:22:31;101297.06;;;13.15;68.79
69223;BME280;56514;51.816;-0.026;2023-02-17T05:25:16;101292.91;;;13.23;68.58
69223;BME280;56514;51.816;-0.026;2023-02-17T05:28:02;101284.75;;;13.26;68.10
69223;BME280;56514;51.816;-0.026;2023-02-17T05:30:48;101303.00;;;13.06;68.84
69223;BME280;56514;51.816;-0.026;2023-02-17T05:33:34;101311.44;;;13.11;68.47
69223;BME280;56514;51.816;-0.026;2023-02-17T05:36:18;101314.84;;;13.13;68.56
69223;BME280;56514;51.816;-0.026;2023-02-17T05:39:04;101277.97;;;13.10;68.46
69223;BME280;56514;51.816;-0.026;2023-02-17T05:41:48;101287.72;;;13.09;68.05
69223;BME280;56514;51.816;-0.026;2023-02-17T05:44:33;101288.00;;;12.92;69.00
69223;BME280;56514;51.816;-0.026;2023-02-17T05:47:18;101290.53;;;12.94;68.85
69223;BME280;56514;51.816;-0.026;2023-02-17T05:50:03;101290.56;;;13.06;68.09
69223;BME280;56514;51.816;-0.026;2023-02-17T05:52:48;101296.84;;;13.18;67.69
69223;BME280;56514;51.816;-0.026;2023-02-17T05:55:33;101265.28;;;13.02;68.20
69223;BME280;56514;51.816;-0.026;2023-02-17T05:58:19;101266.69;;;12.94;68.14
69223;BME280;56514;51.816;-0.026;2023-02-17T06:01:10;101261.94;;;12.99;68.11
69223;BME280;56514;51.816;-0.026;2023-02-17T06:03:56;101250.41;;;12.87;68.51
69223;BME280;56514;51.816;-0.026;2023-02-17T06:06:40;101256.34;;;12.78;68.90
69223;BME280;56514;51.816;-0.026;2023-02-17T06:09:25;101240.66;;;12.75;69.06
69223;BME280;56514;51.816;-0.026;2023-02-17T06:12:11;101247.00;;;12.73;69.05
69223;BME280;56514;51.816;-0.026;2023-02-17T06:14:55;101235.34;;;12.63;69.75
69223;BME280;56514;51.816;-0.026;2023-02-17T06:17:40;101238.94;;;12.74;69.52
69223;BME280;56514;51.816;-0.026;2023-02-17T06:20:24;101248.06;;;12.70;69.59
69223;BME280;56514;51.816;-0.026;2023-02-17T06:23:10;101234.28;;;12.65;69.73
69223;BME280;56514;51.816;-0.026;2023-02-17T06:25:55;101228.25;;;12.76;69.58
69223;BME280;56514;51.816;-0.026;2023-02-17T06:28:40;101221.28;;;12.75;69.41
69223;BME280;56514;51.816;-0.026;2023-02-17T06:31:24;101231.53;;;12.67;69.96
69223;BME280;56514;51.816;-0.026;2023-02-17T06:34:09;101224.97;;;12.60;70.55
69223;BME280;56514;51.816;-0.026;2023-02-17T06:36:54;101232.38;;;12.55;70.28
69223;BME280;56514;51.816;-0.026;2023-02-17T06:39:39;101245.59;;;12.55;70.25
69223;BME280;56514;51.816;-0.026;2023-02-17T06:42:25;101231.84;;;12.50;70.57
69223;BME280;56514;51.816;-0.026;2023-02-17T06:45:10;101247.09;;;12.59;70.25
69223;BME280;56514;51.816;-0.026;2023-02-17T06:47:55;101246.03;;;12.49;70.60
69223;BME280;56514;51.816;-0.026;2023-02-17T06:50:43;101243.41;;;12.61;70.12
69223;BME280;56514;51.816;-0.026;2023-02-17T06:53:27;101264.69;;;12.60;70.46
69223;BME280;56514;51.816;-0.026;2023-02-17T06:56:12;101253.03;;;12.62;69.94
69223;BME280;56514;51.816;-0.026;2023-02-17T06:58:57;101247.84;;;12.61;70.53
69223;BME280;56514;51.816;-0.026;2023-02-17T07:01:42;101239.16;;;12.59;70.48
69223;BME280;56514;51.816;-0.026;2023-02-17T07:04:27;101238.44;;;12.69;70.45
69223;BME280;56514;51.816;-0.026;2023-02-17T07:07:12;101256.34;;;12.78;69.89
69223;BME280;56514;51.816;-0.026;2023-02-17T07:10:01;101273.50;;;12.85;69.98
69223;BME280;56514;51.816;-0.026;2023-02-17T07:12:46;101270.00;;;12.85;69.92
69223;BME280;56514;51.816;-0.026;2023-02-17T07:15:31;101264.91;;;12.94;69.79
69223;BME280;56514;51.816;-0.026;2023-02-17T07:18:16;101260.16;;;12.99;70.00
69223;BME280;56514;51.816;-0.026;2023-02-17T07:21:01;101277.56;;;13.03;69.85
69223;BME280;56514;51.816;-0.026;2023-02-17T07:23:46;101285.78;;;12.99;70.02
69223;BME280;56514;51.816;-0.026;2023-02-17T07:26:30;101288.56;;;13.10;69.45
69223;BME280;56514;51.816;-0.026;2023-02-17T07:29:15;101302.47;;;13.13;69.80
69223;BME280;56514;51.816;-0.026;2023-02-17T07:32:00;101291.66;;;13.16;69.62
69223;BME280;56514;51.816;-0.026;2023-02-17T07:34:45;101289.84;;;13.17;69.58
69223;BME280;56514;51.816;-0.026;2023-02-17T07:37:30;101290.56;;;13.06;70.17
69223;BME280;56514;51.816;-0.026;2023-02-17T07:40:15;101306.78;;;13.14;70.10
69223;BME280;56514;51.816;-0.026;2023-02-17T07:43:00;101314.00;;;13.25;69.68
69223;BME280;56514;51.816;-0.026;2023-02-17T07:45:45;101329.16;;;13.35;69.25
69223;BME280;56514;51.816;-0.026;2023-02-17T07:48:30;101348.97;;;13.30;69.13
69223;BME280;56514;51.816;-0.026;2023-02-17T07:51:19;101351.53;;;13.31;69.38
69223;BME280;56514;51.816;-0.026;2023-02-17T07:54:05;101342.81;;;13.42;69.38
69223;BME280;56514;51.816;-0.026;2023-02-17T07:56:49;101354.56;;;13.38;69.34
69223;BME280;56514;51.816;-0.026;2023-02-17T07:59:34;101370.25;;;13.41;69.47
69223;BME280;56514;51.816;-0.026;2023-02-17T08:02:19;101370.25;;;13.41;69.05
69223;BME280;56514;51.816;-0.026;2023-02-17T08:05:04;101367.31;;;13.45;68.97
69223;BME280;56514;51.816;-0.026;2023-02-17T08:07:49;101362.31;;;13.41;69.42
69223;BME280;56514;51.816;-0.026;2023-02-17T08:10:54;101361.50;;;13.53;69.10
69223;BME280;56514;51.816;-0.026;2023-02-17T08:14:02;101345.03;;;13.48;68.94
69223;BME280;56514;51.816;-0.026;2023-02-17T08:16:47;101350.34;;;13.48;69.57
69223;BME280;56514;51.816;-0.026;2023-02-17T08:19:32;101360.63;;;13.65;68.84
69223;BME280;56514;51.816;-0.026;2023-02-17T08:22:17;101371.22;;;13.52;69.39
69223;BME280;56514;51.816;-0.026;2023-02-17T08:25:02;101370.25;;;13.66;68.68
69223;BME280;56514;51.816;-0.026;2023-02-17T08:27:49;101353.38;;;13.67;68.73
69223;BME280;56514;51.816;-0.026;2023-02-17T08:30:35;101352.13;;;13.72;68.64
69223;BME280;56514;51.816;-0.026;2023-02-17T08:33:20;101362.91;;;13.82;68.17
69223;BME280;56514;51.816;-0.026;2023-02-17T08:36:06;101365.81;;;13.66;69.27
69223;BME280;56514;51.816;-0.026;2023-02-17T08:38:51;101366.00;;;13.76;68.48
69223;BME280;56514;51.816;-0.026;2023-02-17T08:41:38;101376.72;;;13.74;68.43
69223;BME280;56514;51.816;-0.026;2023-02-17T08:44:23;101345.00;;;13.73;68.60
69223;BME280;56514;51.816;-0.026;2023-02-17T08:47:08;101347.66;;;13.73;68.64
69223;BME280;56514;51.816;-0.026;2023-02-17T08:49:55;101340.88;;;13.81;68.20
69223;BME280;56514;51.816;-0.026;2023-02-17T08:52:40;101335.25;;;13.73;68.57
69223;BME280;56514;51.816;-0.026;2023-02-17T08:55:25;101322.72;;;13.88;67.82
69223;BME280;56514;51.816;-0.026;2023-02-17T08:58:10;101325.72;;;13.71;68.49
69223;BME280;56514;51.816;-0.026;2023-02-17T09:00:55;101334.38;;;13.85;68.01
69223;BME280;56514;51.816;-0.026;2023-02-17T09:03:40;101336.19;;;13.85;68.09
69223;BME280;56514;51.816;-0.026;2023-02-17T09:06:39;101330.72;;;13.99;67.44
69223;BME280;56514;51.816;-0.026;2023-02-17T09:09:26;101325.94;;;14.04;67.18
69223;BME280;56514;51.816;-0.026;2023-02-17T09:12:10;101318.66;;;13.95;67.72
69223;BME280;56514;51.816;-0.026;2023-02-17T09:14:56;101331.25;;;14.04;67.62
69223;BME280;56514;51.816;-0.026;2023-02-17T09:17:40;101319.06;;;14.01;67.57
69223;BME280;56514;51.816;-0.026;2023-02-17T09:20:25;101315.97;;;14.07;67.30
69223;BME280;56514;51.816;-0.026;2023-02-17T09:23:10;101343.50;;;14.18;66.96
69223;BME280;56514;51.816;-0.026;2023-02-17T09:26:07;101330.78;;;14.10;66.87
69223;BME280;56514;51.816;-0.026;2023-02-17T09:28:53;101348.91;;;14.16;67.05
69223;BME280;56514;51.816;-0.026;2023-02-17T09:31:38;101354.97;;;14.31;66.55
69223;BME280;56514;51.816;-0.026;2023-02-17T09:34:22;101355.91;;;14.30;66.72
69223;BME280;56514;51.816;-0.026;2023-02-17T09:37:11;101358.63;;;14.41;66.44
69223;BME280;56514;51.816;-0.026;2023-02-17T09:39:56;101353.25;;;14.53;65.82
69223;BME280;56514;51.816;-0.026;2023-02-17T09:42:40;101348.38;;;14.71;65.30
69223;BME280;56514;51.816;-0.026;2023-02-17T09:45:31;101338.09;;;14.66;65.67
69223;BME280;56514;51.816;-0.026;2023-02-17T09:48:20;101339.81;;;14.67;65.73
69223;BME280;56514;51.816;-0.026;2023-02-17T09:51:15;101333.19;;;14.73;65.05
69223;BME280;56514;51.816;-0.026;2023-02-17T09:54:14;101334.75;;;14.75;65.06
69223;BME280;56514;51.816;-0.026;2023-02-17T09:57:02;101330.91;;;14.79;65.00
69223;BME280;56514;51.816;-0.026;2023-02-17T09:59:56;101324.28;;;14.85;64.90
69223;BME280;56514;51.816;-0.026;2023-02-17T10:05:42;101341.06;;;14.96;64.73
69223;BME280;56514;51.816;-0.026;2023-02-17T10:08:35;101331.47;;;15.17;63.61
69223;BME280;56514;51.816;-0.026;2023-02-17T10:11:34;101333.88;;;15.09;64.32
69223;BME280;56514;51.816;-0.026;2023-02-17T10:14:37;101324.44;;;15.16;64.02
69223;BME280;56514;51.816;-0.026;2023-02-17T10:20:35;101320.84;;;15.28;63.35
69223;BME280;56514;51.816;-0.026;2023-02-17T10:23:25;101328.81;;;15.28;63.83
69223;BME280;56514;51.816;-0.026;2023-02-17T10:29:25;101346.53;;;15.40;63.57
69223;BME280;56514;51.816;-0.026;2023-02-17T10:32:20;101358.50;;;15.57;63.22
69223;BME280;56514;51.816;-0.026;2023-02-17T10:38:14;101352.91;;;15.82;62.30
69223;BME280;56514;51.816;-0.026;2023-02-17T10:41:02;101354.50;;;15.85;62.15
69223;BME280;56514;51.816;-0.026;2023-02-17T10:43:49;101343.69;;;15.97;62.08
69223;BME280;56514;51.816;-0.026;2023-02-17T10:46:35;101351.31;;;16.02;61.59
69223;BME280;56514;51.816;-0.026;2023-02-17T10:49:29;101355.94;;;16.00;61.32
69223;BME280;56514;51.816;-0.026;2023-02-17T10:52:18;101358.84;;;15.86;61.97
69223;BME280;56514;51.816;-0.026;2023-02-17T10:55:24;101360.41;;;15.99;62.36
69223;BME280;56514;51.816;-0.026;2023-02-17T10:58:23;101386.78;;;16.13;61.44
69223;BME280;56514;51.816;-0.026;2023-02-17T11:01:09;101382.31;;;16.03;62.01
69223;BME280;56514;51.816;-0.026;2023-02-17T11:06:53;101385.91;;;16.13;61.52
69223;BME280;56514;51.816;-0.026;2023-02-17T11:09:50;101395.38;;;16.06;61.88
69223;BME280;56514;51.816;-0.026;2023-02-17T11:12:40;101402.59;;;16.26;61.12
69223;BME280;56514;51.816;-0.026;2023-02-17T11:15:34;101399.69;;;16.18;61.23
69223;BME280;56514;51.816;-0.026;2023-02-17T11:18:27;101390.75;;;16.19;61.43
69223;BME280;56514;51.816;-0.026;2023-02-17T11:21:12;101396.19;;;16.17;61.74
69223;BME280;56514;51.816;-0.026;2023-02-17T11:24:03;101392.22;;;16.23;61.67
69223;BME280;56514;51.816;-0.026;2023-02-17T11:27:00;101386.06;;;16.43;61.29
69223;BME280;56514;51.816;-0.026;2023-02-17T11:29:46;101384.81;;;16.69;60.35
69223;BME280;56514;51.816;-0.026;2023-02-17T11:32:31;101375.91;;;16.59;60.92
69223;BME280;56514;51.816;-0.026;2023-02-17T11:36:06;101370.09;;;16.85;59.60
69223;BME280;56514;51.816;-0.026;2023-02-17T11:41:22;101386.25;;;17.04;59.29
69223;BME280;56514;51.816;-0.026;2023-02-17T11:44:07;101377.19;;;17.16;59.71
69223;BME280;56514;51.816;-0.026;2023-02-17T11:47:04;101379.94;;;17.46;58.11
69223;BME280;56514;51.816;-0.026;2023-02-17T12:11:14;101417.47;;;17.55;57.15
69223;BME280;56514;51.816;-0.026;2023-02-17T12:27:12;101444.00;;;17.77;55.99
69223;BME280;56514;51.816;-0.026;2023-02-17T12:30:21;101442.84;;;17.70;56.05
69223;BME280;56514;51.816;-0.026;2023-02-17T12:36:04;101456.44;;;17.87;55.46
69223;BME280;56514;51.816;-0.026;2023-02-17T12:39:05;101448.53;;;18.16;54.41
69223;BME280;56514;51.816;-0.026;2023-02-17T12:42:03;101472.75;;;18.24;53.84
69223;BME280;56514;51.816;-0.026;2023-02-17T12:45:03;101477.44;;;18.31;53.10
69223;BME280;56514;51.816;-0.026;2023-02-17T12:48:28;101490.59;;;18.23;53.88
69223;BME280;56514;51.816;-0.026;2023-02-17T12:51:21;101492.22;;;18.15;54.35
69223;BME280;56514;51.816;-0.026;2023-02-17T12:54:38;101491.19;;;18.36;53.59
69223;BME280;56514;51.816;-0.026;2023-02-17T12:57:31;101496.66;;;18.25;53.83
69223;BME280;56514;51.816;-0.026;2023-02-17T13:00:43;101515.38;;;18.35;53.42
69223;BME280;56514;51.816;-0.026;2023-02-17T13:03:31;101510.75;;;18.37;52.95
69223;BME280;56514;51.816;-0.026;2023-02-17T13:06:27;101503.56;;;18.28;53.82
69223;BME280;56514;51.816;-0.026;2023-02-17T13:09:38;101500.22;;;18.35;53.06
69223;BME280;56514;51.816;-0.026;2023-02-17T13:15:40;101492.59;;;18.31;53.38
69223;BME280;56514;51.816;-0.026;2023-02-17T13:18:29;101498.06;;;18.29;53.49
69223;BME280;56514;51.816;-0.026;2023-02-17T13:33:27;101522.66;;;19.60;49.20
69223;BME280;56514;51.816;-0.026;2023-02-17T13:36:20;101536.28;;;18.99;51.13
69223;BME280;56514;51.816;-0.026;2023-02-17T13:42:37;101534.78;;;18.57;52.27
69223;BME280;56514;51.816;-0.026;2023-02-17T13:51:00;101531.28;;;18.36;52.84
69223;BME280;56514;51.816;-0.026;2023-02-17T13:53:49;101539.69;;;18.52;52.08
69223;BME280;56514;51.816;-0.026;2023-02-17T13:56:34;101537.00;;;18.22;52.57
69223;BME280;56514;51.816;-0.026;2023-02-17T13:59:25;101545.56;;;18.26;52.99
69223;BME280;56514;51.816;-0.026;2023-02-17T14:02:19;101534.97;;;18.15;53.41
69223;BME280;56514;51.816;-0.026;2023-02-17T14:05:20;101550.72;;;18.38;52.57
69223;BME280;56514;51.816;-0.026;2023-02-17T14:11:01;101537.06;;;18.71;51.80
69223;BME280;56514;51.816;-0.026;2023-02-17T14:13:51;101537.69;;;18.84;49.79
69223;BME280;56514;51.816;-0.026;2023-02-17T14:16:39;101534.34;;;19.20;49.11
69223;BME280;56514;51.816;-0.026;2023-02-17T14:19:25;101542.34;;;20.16;47.29
69223;BME280;56514;51.816;-0.026;2023-02-17T14:25:14;101532.91;;;21.03;44.83
69223;BME280;56514;51.816;-0.026;2023-02-17T14:31:09;101553.88;;;22.72;41.13
69223;BME280;56514;51.816;-0.026;2023-02-17T14:33:58;101555.56;;;23.30;39.75
69223;BME280;56514;51.816;-0.026;2023-02-17T14:36:43;101556.78;;;24.08;38.23
69223;BME280;56514;51.816;-0.026;2023-02-17T14:39:28;101546.44;;;25.13;35.90
69223;BME280;56514;51.816;-0.026;2023-02-17T14:42:14;101550.69;;;24.77;36.39
69223;BME280;56514;51.816;-0.026;2023-02-17T14:45:00;101549.81;;;24.30;36.87
69223;BME280;56514;51.816;-0.026;2023-02-17T14:47:45;101548.19;;;24.67;36.19
69223;BME280;56514;51.816;-0.026;2023-02-17T14:50:32;101553.41;;;24.06;37.16
69223;BME280;56514;51.816;-0.026;2023-02-17T14:53:24;101561.19;;;24.01;37.31
69223;BME280;56514;51.816;-0.026;2023-02-17T14:56:33;101571.06;;;23.92;38.00
69223;BME280;56514;51.816;-0.026;2023-02-17T14:59:19;101561.31;;;24.15;37.89
69223;BME280;56514;51.816;-0.026;2023-02-17T15:02:15;101575.16;;;23.72;37.76
69223;BME280;56514;51.816;-0.026;2023-02-17T15:05:00;101581.06;;;22.61;40.20
69223;BME280;56514;51.816;-0.026;2023-02-17T15:07:46;101586.06;;;21.52;42.42
69223;BME280;56514;51.816;-0.026;2023-02-17T15:10:31;101583.00;;;21.29;42.96
69223;BME280;56514;51.816;-0.026;2023-02-17T15:13:18;101589.91;;;20.50;44.64
69223;BME280;56514;51.816;-0.026;2023-02-17T15:16:04;101608.81;;;20.39;45.45
69223;BME280;56514;51.816;-0.026;2023-02-17T15:18:50;101618.47;;;20.23;45.99
69223;BME280;56514;51.816;-0.026;2023-02-17T15:21:37;101608.50;;;20.61;44.84
69223;BME280;56514;51.816;-0.026;2023-02-17T15:24:24;101609.16;;;20.08;46.05
69223;BME280;56514;51.816;-0.026;2023-02-17T15:27:12;101605.66;;;19.60;47.69
69223;BME280;56514;51.816;-0.026;2023-02-17T15:29:57;101599.28;;;19.32;48.35
69223;BME280;56514;51.816;-0.026;2023-02-17T15:32:43;101591.69;;;19.28;48.76
69223;BME280;56514;51.816;-0.026;2023-02-17T15:35:28;101587.41;;;19.15;50.00
69223;BME280;56514;51.816;-0.026;2023-02-17T15:38:15;101579.84;;;19.97;47.51
69223;BME280;56514;51.816;-0.026;2023-02-17T15:40:59;101579.00;;;19.96;47.44
69223;BME280;56514;51.816;-0.026;2023-02-17T15:43:46;101574.13;;;20.38;46.67
69223;BME280;56514;51.816;-0.026;2023-02-17T15:46:32;101579.47;;;20.74;45.51
69223;BME280;56514;51.816;-0.026;2023-02-17T15:49:17;101589.41;;;20.09;46.95
69223;BME280;56514;51.816;-0.026;2023-02-17T15:52:02;101592.94;;;20.00;47.64
69223;BME280;56514;51.816;-0.026;2023-02-17T15:54:46;101602.50;;;20.12;46.86
69223;BME280;56514;51.816;-0.026;2023-02-17T15:57:31;101603.41;;;19.74;47.96
69223;BME280;56514;51.816;-0.026;2023-02-17T16:00:19;101616.78;;;19.36;48.34
69223;BME280;56514;51.816;-0.026;2023-02-17T16:03:05;101615.72;;;19.18;49.53
69223;BME280;56514;51.816;-0.026;2023-02-17T16:05:50;101616.69;;;19.07;49.54
69223;BME280;56514;51.816;-0.026;2023-02-17T16:08:34;101617.50;;;18.98;49.79
69223;BME280;56514;51.816;-0.026;2023-02-17T16:11:20;101620.72;;;18.62;50.20
69223;BME280;56514;51.816;-0.026;2023-02-17T16:14:13;101629.44;;;18.34;50.81
69223;BME280;56514;51.816;-0.026;2023-02-17T16:17:03;101625.38;;;17.99;52.47
69223;BME280;56514;51.816;-0.026;2023-02-17T16:19:53;101642.84;;;17.51;53.47
69223;BME280;56514;51.816;-0.026;2023-02-17T16:22:38;101632.19;;;17.28;54.53
69223;BME280;56514;51.816;-0.026;2023-02-17T16:25:23;101628.91;;;17.25;54.93
69223;BME280;56514;51.816;-0.026;2023-02-17T16:28:17;101626.66;;;17.09;55.08